Time;durP1;ratioP1;P1;durP2;ratioP2;P2;SDS_P1;SDS_P2;PMS_P1;PMS_P2;Temp;Humidity;BMP_temperature;BMP_pressure;BME280_temperature;BME280_humidity;BME280_pressure;Samples;Min_cycle;Max_cycle;Signal;HPM_P1;HPM_P2
2021/08/04 00:01:44;;;;;;;;;;;;;;;19.68;74.83;99309.22;5138371;27;19923;-71
2021/08/04 00:04:14;;;;;;;;;;;;;;;19.57;74.93;99321.81;5138154;27;19923;-70
2021/08/04 00:06:43;;;;;;;;;;;;;;;19.68;75.45;99319.56;5138351;27;19924;-71
2021/08/04 00:09:12;;;;;;;;;;;;;;;19.77;75.29;99319.16;5138256;27;19923;-70
2021/08/04 00:11:41;;;;;;;;;;;;;;;19.73;75.50;99322.81;5138508;27;20030;-70
2021/08/04 00:14:10;;;;;;;;;;;;;;;19.72;75.80;99336.69;5138181;27;19931;-74
2021/08/04 00:16:42;;;;;;;;;;;;;;;19.68;75.95;99345.47;5138560;27;20031;-74
2021/08/04 00:19:11;;;;;;;;;;;;;;;19.66;76.12;99346.44;5120102;27;19924;-74
2021/08/04 00:21:41;;;;;;;;;;;;;;;19.71;75.93;99354.88;5137873;27;20373;-74
2021/08/04 00:24:10;;;;;;;;;;;;;;;19.72;75.61;99349.63;5138325;27;19927;-74
2021/08/04 00:26:39;;;;;;;;;;;;;;;19.80;75.41;99339.78;5119579;27;20274;-70
2021/08/04 00:29:09;;;;;;;;;;;;;;;19.79;74.87;99338.09;5120278;27;19974;-70
2021/08/04 00:31:38;;;;;;;;;;;;;;;19.81;74.58;99341.47;5118750;27;19923;-71
2021/08/04 00:34:07;;;;;;;;;;;;;;;19.81;74.95;99338.88;5138108;27;20376;-70
2021/08/04 00:36:36;;;;;;;;;;;;;;;19.73;75.24;99338.34;5138106;27;19966;-70
2021/08/04 00:39:06;;;;;;;;;;;;;;;19.63;75.68;99331.88;5138096;27;19969;-71
2021/08/04 00:41:39;;;;;;;;;;;;;;;19.65;76.02;99326.66;5119313;27;19924;-71
2021/08/04 00:44:09;;;;;;;;;;;;;;;19.81;75.37;99320.75;5119446;27;19923;-70
2021/08/04 00:46:39;;;;;;;;;;;;;;;19.88;74.73;99327.34;5137595;27;20010;-71
2021/08/04 00:49:10;;;;;;;;;;;;;;;19.81;74.34;99341.47;5119708;27;20022;-74
2021/08/04 00:51:41;;;;;;;;;;;;;;;19.76;74.35;99343.41;5119466;27;20329;-74
2021/08/04 00:54:12;;;;;;;;;;;;;;;19.86;74.20;99344.69;5119235;27;19946;-70
2021/08/04 00:56:41;;;;;;;;;;;;;;;19.96;73.80;99356.31;5119425;27;19924;-70
2021/08/04 00:59:13;;;;;;;;;;;;;;;20.04;73.82;99358.56;5119286;27;19982;-70
2021/08/04 01:01:47;;;;;;;;;;;;;;;19.98;73.98;99359.69;5119295;27;19980;-70
2021/08/04 01:04:20;;;;;;;;;;;;;;;19.92;74.16;99349.59;5115468;28;19958;-70
2021/08/04 01:06:53;;;;;;;;;;;;;;;19.93;74.57;99353.03;5116698;28;19939;-74
2021/08/04 01:09:25;;;;;;;;;;;;;;;19.85;74.83;99355.09;5116131;28;19970;-74
2021/08/04 01:11:57;;;;;;;;;;;;;;;19.83;74.84;99343.97;5115695;28;20296;-74
2021/08/04 01:14:28;;;;;;;;;;;;;;;19.89;74.69;99343.72;5115392;28;19963;-74
2021/08/04 01:16:57;;;;;;;;;;;;;;;19.98;74.38;99338.97;5117399;28;19977;-74
2021/08/04 01:19:35;;;;;;;;;;;;;;;19.98;74.36;99341.56;5116481;28;19923;-74
2021/08/04 01:22:10;;;;;;;;;;;;;;;19.99;73.99;99335.47;5116582;27;20418;-74
2021/08/04 01:24:45;;;;;;;;;;;;;;;19.99;74.49;99334.63;5116349;28;20019;-70
2021/08/04 01:27:16;;;;;;;;;;;;;;;19.98;74.27;99332.94;5116634;28;19962;-74
2021/08/04 01:29:45;;;;;;;;;;;;;;;19.92;74.29;99330.63;5115079;28;19966;-70
2021/08/04 01:32:15;;;;;;;;;;;;;;;19.93;74.32;99340.94;5114900;28;19931;-70
2021/08/04 01:34:44;;;;;;;;;;;;;;;19.89;74.44;99346.31;5115161;28;19924;-71
2021/08/04 01:37:14;;;;;;;;;;;;;;;19.83;74.70;99342.22;5116047;28;19928;-70
2021/08/04 01:39:45;;;;;;;;;;;;;;;19.80;74.82;99336.31;5115955;28;19934;-74
2021/08/04 01:42:16;;;;;;;;;;;;;;;19.80;74.84;99352.72;5116250;28;19927;-73
2021/08/04 01:44:46;;;;;;;;;;;;;;;19.81;75.03;99357.00;5114858;28;19930;-70
2021/08/04 01:47:15;;;;;;;;;;;;;;;19.74;74.87;99359.91;5114742;28;19924;-74
2021/08/04 01:49:46;;;;;;;;;;;;;;;19.69;75.20;99357.53;5115784;28;20438;-70
2021/08/04 01:52:16;;;;;;;;;;;;;;;19.61;75.00;99359.59;5115744;28;19924;-74
2021/08/04 01:54:45;;;;;;;;;;;;;;;19.58;75.52;99364.91;5115960;28;19967;-74
2021/08/04 01:57:15;;;;;;;;;;;;;;;19.61;75.23;99362.19;5114385;28;19981;-70
2021/08/04 01:59:44;;;;;;;;;;;;;;;19.64;75.48;99362.06;5115991;28;19924;-71
2021/08/04 02:02:18;;;;;;;;;;;;;;;19.64;75.39;99363.81;5114324;28;19988;-71
2021/08/04 02:04:47;;;;;;;;;;;;;;;19.68;75.11;99365.34;5114171;28;19932;-70
2021/08/04 02:07:20;;;;;;;;;;;;;;;19.68;75.06;99361.00;5114604;28;19923;-71
2021/08/04 02:09:51;;;;;;;;;;;;;;;19.57;75.26;99358.06;5115840;28;19934;-71
2021/08/04 02:12:22;;;;;;;;;;;;;;;19.53;75.62;99361.66;5114186;28;19973;-71
2021/08/04 02:14:54;;;;;;;;;;;;;;;19.49;75.94;99364.44;5114182;28;19924;-71
2021/08/04 02:17:28;;;;;;;;;;;;;;;19.52;76.18;99365.16;5114097;28;19927;-71
2021/08/04 02:19:59;;;;;;;;;;;;;;;19.50;76.08;99366.97;5115641;28;19951;-70
2021/08/04 02:22:32;;;;;;;;;;;;;;;19.55;76.28;99365.03;5115239;28;19973;-71
2021/08/04 02:25:05;;;;;;;;;;;;;;;19.61;75.91;99364.78;5115196;28;20038;-74
2021/08/04 02:27:38;;;;;;;;;;;;;;;19.62;76.14;99360.44;5114173;28;20022;-74
2021/08/04 02:30:09;;;;;;;;;;;;;;;19.64;75.94;99363.81;5115437;28;19923;-74
2021/08/04 02:32:39;;;;;;;;;;;;;;;19.58;75.98;99361.50;5115323;28;19930;-74
2021/08/04 02:35:09;;;;;;;;;;;;;;;19.39;76.63;99353.63;5114956;28;19993;-74
2021/08/04 02:37:38;;;;;;;;;;;;;;;19.34;77.23;99360.72;5114827;28;19931;-75
2021/08/04 02:40:08;;;;;;;;;;;;;;;19.30;77.47;99374.69;5114912;28;19924;-74
2021/08/04 02:42:39;;;;;;;;;;;;;;;19.22;77.65;99369.81;5114063;28;19954;-74
2021/08/04 02:45:09;;;;;;;;;;;;;;;19.24;78.09;99374.97;5113700;28;20285;-74
2021/08/04 02:47:38;;;;;;;;;;;;;;;19.33;77.95;99362.47;5115034;28;19932;-74
2021/08/04 02:50:08;;;;;;;;;;;;;;;19.43;77.70;99362.13;5114707;28;19923;-74
2021/08/04 02:52:38;;;;;;;;;;;;;;;19.48;77.78;99358.44;5114419;28;19930;-74
2021/08/04 02:55:08;;;;;;;;;;;;;;;19.49;77.25;99354.09;5096370;28;19977;-74
2021/08/04 02:57:38;;;;;;;;;;;;;;;19.42;77.31;99350.06;5114511;28;20367;-74
2021/08/04 03:00:07;;;;;;;;;;;;;;;19.45;77.49;99348.22;5114627;28;19993;-74
2021/08/04 03:02:37;;;;;;;;;;;;;;;19.41;77.35;99348.41;5114868;28;19954;-74
2021/08/04 03:05:10;;;;;;;;;;;;;;;19.34;77.38;99345.19;5133467;27;20451;-71
2021/08/04 03:07:39;;;;;;;;;;;;;;;19.32;77.52;99352.16;5135335;27;19969;-71
2021/08/04 03:10:09;;;;;;;;;;;;;;;19.27;77.47;99344.59;5117072;28;19966;-71
2021/08/04 03:12:40;;;;;;;;;;;;;;;19.27;77.49;99348.94;5134981;28;20015;-74
2021/08/04 03:15:10;;;;;;;;;;;;;;;19.30;77.62;99343.63;5116959;28;19924;-71
2021/08/04 03:17:39;;;;;;;;;;;;;;;19.30;77.45;99353.97;5116686;28;19923;-71
2021/08/04 03:20:09;;;;;;;;;;;;;;;19.25;77.26;99361.09;5134912;28;19947;-71
2021/08/04 03:22:43;;;;;;;;;;;;;;;19.20;77.46;99363.03;5135209;28;19924;-71
2021/08/04 03:25:14;;;;;;;;;;;;;;;19.11;77.66;99359.06;5135084;28;20368;-71
2021/08/04 03:27:44;;;;;;;;;;;;;;;19.11;77.91;99358.22;5116555;28;19923;-71
2021/08/04 03:30:14;;;;;;;;;;;;;;;19.16;77.77;99351.13;5135468;28;19930;-71
2021/08/04 03:32:43;;;;;;;;;;;;;;;19.18;77.41;99351.91;5135020;28;19954;-71
2021/08/04 03:35:12;;;;;;;;;;;;;;;19.14;77.30;99345.19;5134804;28;19984;-71
2021/08/04 03:37:41;;;;;;;;;;;;;;;19.13;77.12;99349.50;5134627;28;19930;-71
2021/08/04 03:40:11;;;;;;;;;;;;;;;19.15;77.27;99352.88;5135330;28;20296;-71
2021/08/04 03:42:40;;;;;;;;;;;;;;;19.14;77.23;99343.44;5134682;28;20010;-71
2021/08/04 03:45:11;;;;;;;;;;;;;;;19.12;77.06;99354.75;5134607;28;19923;-70
2021/08/04 03:47:40;;;;;;;;;;;;;;;19.09;76.97;99354.88;5134665;28;19923;-71
2021/08/04 03:50:10;;;;;;;;;;;;;;;19.09;77.06;99360.03;5134612;28;19923;-71
2021/08/04 03:52:41;;;;;;;;;;;;;;;19.05;77.17;99363.66;5134585;28;19923;-71
2021/08/04 03:55:13;;;;;;;;;;;;;;;18.99;77.25;99369.91;5134876;28;19923;-71
2021/08/04 03:57:42;;;;;;;;;;;;;;;18.81;77.27;99364.63;5134802;28;19924;-71
2021/08/04 04:00:13;;;;;;;;;;;;;;;18.74;77.85;99364.84;5134569;28;19923;-71
2021/08/04 04:02:42;;;;;;;;;;;;;;;18.77;78.28;99370.81;5134525;28;19924;-71
2021/08/04 04:05:11;;;;;;;;;;;;;;;18.87;78.18;99370.41;5134364;28;20022;-71
2021/08/04 04:07:40;;;;;;;;;;;;;;;18.92;78.03;99365.03;5136981;27;19965;-74
2021/08/04 04:10:10;;;;;;;;;;;;;;;18.95;77.96;99362.34;5138636;27;19923;-75
2021/08/04 04:12:39;;;;;;;;;;;;;;;18.97;77.81;99363.13;5138519;27;20269;-75
2021/08/04 04:15:09;;;;;;;;;;;;;;;18.94;77.71;99366.66;5138113;27;20014;-74
2021/08/04 04:17:40;;;;;;;;;;;;;;;18.99;77.77;99369.06;5138006;27;19924;-74
2021/08/04 04:20:11;;;;;;;;;;;;;;;19.01;77.76;99367.25;5139089;27;19923;-75
2021/08/04 04:22:44;;;;;;;;;;;;;;;19.08;77.70;99369.53;5138106;27;19946;-74
2021/08/04 04:25:14;;;;;;;;;;;;;;;19.18;77.52;99375.19;5138463;27;20433;-74
2021/08/04 04:27:43;;;;;;;;;;;;;;;19.22;77.21;99382.75;5119598;27;19945;-75
2021/08/04 04:30:13;;;;;;;;;;;;;;;19.20;77.12;99387.16;5137935;27;20429;-74
2021/08/04 04:32:44;;;;;;;;;;;;;;;19.12;77.35;99391.78;5138643;27;19923;-74
2021/08/04 04:35:14;;;;;;;;;;;;;;;19.14;77.28;99394.34;5138221;27;19930;-74
2021/08/04 04:37:42;;;;;;;;;;;;;;;19.30;77.21;99400.56;5137616;27;19992;-74
2021/08/04 04:40:12;;;;;;;;;;;;;;;19.47;76.74;99387.81;5138274;27;19931;-74
2021/08/04 04:42:41;;;;;;;;;;;;;;;19.64;76.28;99387.97;5137702;27;19962;-74
2021/08/04 04:45:12;;;;;;;;;;;;;;;19.82;75.97;99394.94;5138367;27;20362;-74
2021/08/04 04:47:41;;;;;;;;;;;;;;;19.96;75.59;99392.59;5137535;27;19930;-74
2021/08/04 04:50:11;;;;;;;;;;;;;;;20.11;74.88;99391.06;5137520;27;20330;-74
2021/08/04 04:52:41;;;;;;;;;;;;;;;20.25;74.43;99398.28;5119299;27;19923;-74
2021/08/04 04:55:11;;;;;;;;;;;;;;;20.29;73.99;99394.66;5137882;27;19930;-74
2021/08/04 04:57:40;;;;;;;;;;;;;;;20.34;73.41;99397.88;5137324;27;19992;-70
2021/08/04 05:00:10;;;;;;;;;;;;;;;20.25;73.23;99388.75;5137294;27;19976;-72
2021/08/04 05:02:39;;;;;;;;;;;;;;;20.22;73.25;99393.22;5137691;27;19923;-74
2021/08/04 05:05:12;;;;;;;;;;;;;;;20.23;73.00;99400.13;5137451;27;19923;-70
2021/08/04 05:07:42;;;;;;;;;;;;;;;20.14;73.08;99410.84;5137216;27;19962;-72
2021/08/04 05:10:11;;;;;;;;;;;;;;;20.05;73.22;99420.72;5137221;27;19967;-73
2021/08/04 05:12:40;;;;;;;;;;;;;;;20.08;73.02;99416.28;5137052;27;19923;-74
2021/08/04 05:15:09;;;;;;;;;;;;;;;20.23;73.21;99426.03;5137314;27;20377;-70
2021/08/04 05:17:38;;;;;;;;;;;;;;;20.43;73.07;99428.56;5136627;27;19924;-74
2021/08/04 05:20:08;;;;;;;;;;;;;;;20.51;72.35;99432.53;5136937;27;19923;-70
2021/08/04 05:22:42;;;;;;;;;;;;;;;20.49;72.23;99430.91;5136851;27;20437;-73
2021/08/04 05:25:11;;;;;;;;;;;;;;;20.44;71.89;99430.25;5137234;27;19924;-74
2021/08/04 05:27:40;;;;;;;;;;;;;;;20.40;72.07;99433.88;5136677;27;19923;-74
2021/08/04 05:30:12;;;;;;;;;;;;;;;20.39;72.01;99434.81;5136765;27;20390;-73
2021/08/04 05:32:41;;;;;;;;;;;;;;;20.31;72.10;99439.47;5136790;27;20385;-74
2021/08/04 05:35:11;;;;;;;;;;;;;;;20.31;72.09;99439.47;5136927;27;19931;-74
2021/08/04 05:37:40;;;;;;;;;;;;;;;20.36;71.96;99429.75;5136548;27;19923;-74
2021/08/04 05:40:11;;;;;;;;;;;;;;;20.39;72.14;99438.25;5136445;27;19951;-74
2021/08/04 05:42:41;;;;;;;;;;;;;;;20.49;72.51;99444.69;5136826;27;20418;-71
2021/08/04 05:45:10;;;;;;;;;;;;;;;20.58;72.09;99438.25;5136463;27;20423;-70
2021/08/04 05:47:39;;;;;;;;;;;;;;;20.40;71.99;99439.91;5136362;27;19928;-71
2021/08/04 05:50:09;;;;;;;;;;;;;;;20.35;72.29;99435.84;5136403;27;19976;-71
2021/08/04 05:52:37;;;;;;;;;;;;;;;20.38;72.76;99443.50;5136217;27;19969;-71
2021/08/04 05:55:07;;;;;;;;;;;;;;;20.45;72.55;99437.13;5136208;27;19923;-70
2021/08/04 05:57:38;;;;;;;;;;;;;;;20.41;72.58;99440.75;5136429;27;19935;-73
2021/08/04 06:00:07;;;;;;;;;;;;;;;20.38;72.59;99435.72;5136126;27;19923;-73
2021/08/04 06:02:46;;;;;;;;;;;;;;;20.43;72.30;99436.34;5136399;27;19983;-73
2021/08/04 06:05:15;;;;;;;;;;;;;;;20.64;72.33;99433.63;5136045;27;19924;-74
2021/08/04 06:07:44;;;;;;;;;;;;;;;20.86;71.68;99427.44;5135993;27;19931;-74
2021/08/04 06:10:13;;;;;;;;;;;;;;;21.11;71.34;99438.41;5136136;27;20022;-74
2021/08/04 06:12:44;;;;;;;;;;;;;;;21.24;71.11;99445.53;5135876;27;19930;-70
2021/08/04 06:15:13;;;;;;;;;;;;;;;21.27;70.89;99445.41;5135819;27;20443;-70
2021/08/04 06:17:42;;;;;;;;;;;;;;;21.09;71.19;99440.25;5136505;27;19923;-74
2021/08/04 06:20:12;;;;;;;;;;;;;;;21.24;71.25;99440.34;5136129;27;19924;-71
2021/08/04 06:22:40;;;;;;;;;;;;;;;21.45;70.62;99432.44;5135654;27;20022;-73
2021/08/04 06:25:10;;;;;;;;;;;;;;;21.61;70.62;99433.34;5135907;27;20017;-73
2021/08/04 06:27:39;;;;;;;;;;;;;;;21.48;70.04;99425.31;5135758;27;19957;-74
2021/08/04 06:30:09;;;;;;;;;;;;;;;21.36;70.42;99429.34;5134986;27;20018;-71
2021/08/04 06:32:38;;;;;;;;;;;;;;;21.35;70.15;99432.84;5135645;27;19945;-74
2021/08/04 06:35:09;;;;;;;;;;;;;;;21.36;70.05;99437.16;5135450;27;19930;-74
2021/08/04 06:37:38;;;;;;;;;;;;;;;21.01;69.96;99430.19;5136112;27;19923;-74
2021/08/04 06:40:07;;;;;;;;;;;;;;;20.85;70.51;99421.41;5135378;27;19929;-72
2021/08/04 06:42:36;;;;;;;;;;;;;;;20.68;70.79;99418.78;5135438;27;19934;-74
2021/08/04 06:45:05;;;;;;;;;;;;;;;20.78;71.24;99429.56;5135291;27;19923;-70
2021/08/04 06:47:37;;;;;;;;;;;;;;;20.79;71.71;99431.25;5135320;27;20365;-74
2021/08/04 06:50:31;;;;;;;;;;;;;;;20.80;71.20;99432.94;5121295;27;19931;-70
2021/08/04 06:52:59;;;;;;;;;;;;;;;20.66;71.38;99430.97;5135435;27;19977;-72
2021/08/04 06:55:28;;;;;;;;;;;;;;;20.74;71.65;99428.88;5135438;27;19958;-74
2021/08/04 06:57:57;;;;;;;;;;;;;;;20.86;71.71;99438.69;5135177;27;19973;-74
2021/08/04 07:00:26;;;;;;;;;;;;;;;21.14;71.50;99444.28;5135008;27;19927;-73
2021/08/04 07:02:56;;;;;;;;;;;;;;;21.50;70.90;99451.25;5135199;27;20022;-71
2021/08/04 07:05:25;;;;;;;;;;;;;;;21.82;70.13;99442.66;5135097;27;19931;-72
2021/08/04 07:07:54;;;;;;;;;;;;;;;22.11;69.59;99439.47;5135249;27;19924;-71
2021/08/04 07:10:23;;;;;;;;;;;;;;;22.27;68.48;99437.75;5134968;27;20408;-70
2021/08/04 07:12:51;;;;;;;;;;;;;;;22.26;68.22;99438.69;5135295;28;19976;-71
2021/08/04 07:15:20;;;;;;;;;;;;;;;22.28;67.98;99443.78;5134955;28;19923;-71
2021/08/04 07:17:50;;;;;;;;;;;;;;;22.43;67.97;99436.03;5134789;28;20018;-73
2021/08/04 07:20:21;;;;;;;;;;;;;;;22.63;67.85;99435.00;5134864;28;19930;-72
2021/08/04 07:22:50;;;;;;;;;;;;;;;22.77;67.49;99452.47;5134812;28;19923;-72
2021/08/04 07:25:19;;;;;;;;;;;;;;;22.90;67.60;99450.88;5134843;28;20257;-71
2021/08/04 07:27:49;;;;;;;;;;;;;;;22.93;67.38;99455.94;5134738;28;19924;-74
2021/08/04 07:30:18;;;;;;;;;;;;;;;22.92;66.90;99454.22;5134870;28;19985;-73
2021/08/04 07:32:47;;;;;;;;;;;;;;;22.86;67.25;99457.19;5134732;28;20369;-71
2021/08/04 07:35:17;;;;;;;;;;;;;;;23.00;66.81;99454.66;5134729;28;19927;-72
2021/08/04 07:37:47;;;;;;;;;;;;;;;23.06;66.22;99459.56;5134746;28;19928;-73
2021/08/04 07:40:17;;;;;;;;;;;;;;;23.12;65.90;99456.59;5134545;28;20018;-72
2021/08/04 07:42:46;;;;;;;;;;;;;;;23.24;65.73;99461.13;5138967;27;19924;-73
2021/08/04 07:45:16;;;;;;;;;;;;;;;23.23;65.50;99462.03;5138748;27;19930;-70
2021/08/04 07:47:45;;;;;;;;;;;;;;;22.91;65.44;99465.59;5139020;27;20000;-71
2021/08/04 07:50:14;;;;;;;;;;;;;;;22.86;65.57;99459.78;5138657;27;19931;-73
2021/08/04 07:52:43;;;;;;;;;;;;;;;22.73;65.50;99466.56;5139080;27;19923;-72
2021/08/04 07:55:16;;;;;;;;;;;;;;;22.55;65.29;99461.41;5138594;27;19923;-73
2021/08/04 07:57:45;;;;;;;;;;;;;;;22.62;64.75;99455.00;5138542;27;20014;-73
2021/08/04 08:00:14;;;;;;;;;;;;;;;22.67;64.34;99460.75;5138752;27;20279;-73
2021/08/04 08:02:44;;;;;;;;;;;;;;;22.81;63.63;99451.38;5138526;27;19959;-70
2021/08/04 08:05:14;;;;;;;;;;;;;;;22.91;63.67;99457.78;5138207;27;19958;-73
2021/08/04 08:07:46;;;;;;;;;;;;;;;22.95;64.17;99456.69;5138515;27;20330;-73
2021/08/04 08:10:18;;;;;;;;;;;;;;;23.22;63.73;99458.63;5138336;27;19923;-73
2021/08/04 08:12:47;;;;;;;;;;;;;;;23.46;63.26;99466.00;5138276;27;19924;-70
2021/08/04 08:15:16;;;;;;;;;;;;;;;23.67;62.72;99464.78;5138255;27;20010;-70
2021/08/04 08:17:45;;;;;;;;;;;;;;;23.71;62.34;99463.66;5138130;27;19929;-72
2021/08/04 08:20:14;;;;;;;;;;;;;;;23.67;61.30;99460.41;5138441;27;19923;-70
2021/08/04 08:22:43;;;;;;;;;;;;;;;23.63;61.87;99464.13;5137985;27;20002;-73
2021/08/04 08:25:13;;;;;;;;;;;;;;;23.49;61.45;99464.03;5138047;27;20388;-73
2021/08/04 08:27:44;;;;;;;;;;;;;;;23.73;61.24;99460.03;5138112;27;20384;-73
2021/08/04 08:30:14;;;;;;;;;;;;;;;23.94;60.71;99445.78;5138367;27;19927;-70
2021/08/04 08:32:46;;;;;;;;;;;;;;;23.98;60.92;99446.41;5137834;27;20026;-70
2021/08/04 08:35:14;;;;;;;;;;;;;;;24.08;60.61;99434.53;5138109;27;19962;-73
2021/08/04 08:37:43;;;;;;;;;;;;;;;24.07;59.79;99447.69;5137764;27;19930;-71
2021/08/04 08:40:13;;;;;;;;;;;;;;;23.81;60.68;99447.41;5137583;27;19924;-73
2021/08/04 08:42:43;;;;;;;;;;;;;;;23.88;60.41;99451.31;5138342;27;19962;-73
2021/08/04 08:45:14;;;;;;;;;;;;;;;23.98;60.38;99452.47;5137593;27;19932;-70
2021/08/04 08:47:44;;;;;;;;;;;;;;;23.77;59.89;99453.72;5137548;27;19968;-73
2021/08/04 08:50:25;;;;;;;;;;;;;;;23.89;59.62;99449.56;5137599;27;19924;-73
2021/08/04 08:52:55;;;;;;;;;;;;;;;24.02;59.57;99453.13;5137175;27;19924;-70
2021/08/04 08:55:24;;;;;;;;;;;;;;;24.02;59.21;99453.97;5137989;27;20133;-73
2021/08/04 08:57:53;;;;;;;;;;;;;;;24.26;59.60;99458.69;5137933;27;20330;-73
2021/08/04 09:00:23;;;;;;;;;;;;;;;24.32;58.91;99453.09;5137448;27;20279;-71
2021/08/04 09:02:52;;;;;;;;;;;;;;;24.37;58.36;99451.06;5137109;27;19931;-72
2021/08/04 09:05:22;;;;;;;;;;;;;;;24.29;57.97;99450.66;5137270;27;19973;-73
2021/08/04 09:07:51;;;;;;;;;;;;;;;24.28;57.91;99444.59;5137163;27;19962;-70
2021/08/04 09:10:30;;;;;;;;;;;;;;;24.35;57.51;99443.31;5136935;27;20283;-71
2021/08/04 09:12:59;;;;;;;;;;;;;;;24.59;57.15;99435.75;5137083;27;19927;-73
2021/08/04 09:15:31;;;;;;;;;;;;;;;24.69;56.03;99425.59;5136982;27;20323;-70
2021/08/04 09:18:01;;;;;;;;;;;;;;;24.90;55.96;99419.88;5137591;27;19930;-71
2021/08/04 09:20:30;;;;;;;;;;;;;;;25.07;54.53;99417.03;5136855;27;19966;-71
2021/08/04 09:23:02;;;;;;;;;;;;;;;25.20;54.39;99423.13;5136809;27;20380;-70
2021/08/04 09:25:31;;;;;;;;;;;;;;;25.20;53.94;99420.53;5136923;27;19930;-70
2021/08/04 09:28:00;;;;;;;;;;;;;;;25.11;55.33;99417.66;5136689;27;20361;-71
2021/08/04 09:30:32;;;;;;;;;;;;;;;24.91;55.20;99426.78;5136674;27;20448;-70
2021/08/04 09:33:12;;;;;;;;;;;;;;;24.62;54.98;99425.09;5136728;27;19923;-70
2021/08/04 09:35:45;;;;;;;;;;;;;;;24.64;54.75;99423.28;5136602;27;20391;-71
2021/08/04 09:38:14;;;;;;;;;;;;;;;24.72;54.55;99422.75;5136567;27;19923;-73
2021/08/04 09:40:47;;;;;;;;;;;;;;;24.62;54.63;99417.28;5118257;27;19924;-73
2021/08/04 09:43:26;;;;;;;;;;;;;;;24.62;55.97;99420.72;5136966;27;20317;-72
2021/08/04 09:45:57;;;;;;;;;;;;;;;24.49;55.27;99414.63;5136881;27;20022;-70
2021/08/04 09:48:27;;;;;;;;;;;;;;;24.48;55.69;99418.13;5136328;27;19923;-73
2021/08/04 09:50:56;;;;;;;;;;;;;;;24.66;55.82;99424.00;5136344;27;20369;-73
2021/08/04 09:53:26;;;;;;;;;;;;;;;24.60;55.11;99422.59;5136599;27;19927;-70
2021/08/04 09:56:06;;;;;;;;;;;;;;;24.67;56.49;99428.28;5136581;27;20009;-73
2021/08/04 09:58:35;;;;;;;;;;;;;;;24.71;57.19;99435.00;5136646;27;19923;-70
2021/08/04 10:01:06;;;;;;;;;;;;;;;24.69;56.54;99426.41;5136313;27;19923;-72
2021/08/04 10:03:35;;;;;;;;;;;;;;;24.68;55.96;99424.75;5135942;27;19923;-70
2021/08/04 10:06:05;;;;;;;;;;;;;;;24.74;56.82;99423.53;5135174;27;19968;-73
2021/08/04 10:08:55;;;;;;;;;;;;;;;24.82;55.97;99421.28;5136032;27;19923;-73
2021/08/04 10:11:24;;;;;;;;;;;;;;;24.82;56.13;99426.50;5135980;27;20061;-73
2021/08/04 10:13:55;;;;;;;;;;;;;;;24.81;55.67;99420.44;5135781;27;19924;-73
2021/08/04 10:16:30;;;;;;;;;;;;;;;24.75;55.22;99415.59;5135970;27;19923;-73
2021/08/04 10:18:59;;;;;;;;;;;;;;;24.65;55.34;99414.47;5135756;27;19923;-70
2021/08/04 10:21:28;;;;;;;;;;;;;;;24.65;56.88;99404.03;5136032;27;19927;-73
2021/08/04 10:23:56;;;;;;;;;;;;;;;24.62;55.56;99406.84;5135671;27;19953;-73
2021/08/04 10:26:25;;;;;;;;;;;;;;;24.49;56.80;99411.16;5135587;27;19960;-71
2021/08/04 10:28:57;;;;;;;;;;;;;;;24.52;55.84;99409.19;5117301;27;19968;-73
2021/08/04 10:31:28;;;;;;;;;;;;;;;24.60;55.47;99406.94;5135542;27;19924;-72
2021/08/04 10:33:58;;;;;;;;;;;;;;;24.60;55.16;99406.09;5135533;27;19923;-72
2021/08/04 10:36:31;;;;;;;;;;;;;;;24.68;55.91;99411.69;5135770;27;19923;-73
2021/08/04 10:39:01;;;;;;;;;;;;;;;24.85;57.47;99403.66;5136005;27;19927;-72
2021/08/04 10:41:30;;;;;;;;;;;;;;;24.93;57.26;99404.00;5136196;27;19931;-70
2021/08/04 10:43:59;;;;;;;;;;;;;;;25.00;57.04;99405.28;5135272;27;20018;-71
2021/08/04 10:46:37;;;;;;;;;;;;;;;24.97;56.28;99400.28;5135302;27;19923;-70
2021/08/04 10:49:28;;;;;;;;;;;;;;;24.78;56.25;99405.00;5135251;27;20408;-71
2021/08/04 10:52:14;;;;;;;;;;;;;;;24.83;55.98;99402.94;5129801;27;19943;-70
2021/08/04 10:54:54;;;;;;;;;;;;;;;24.98;55.17;99406.34;5135210;27;20006;-73
2021/08/04 10:57:22;;;;;;;;;;;;;;;24.92;54.48;99412.78;5135187;27;20309;-73
2021/08/04 10:59:51;;;;;;;;;;;;;;;24.89;55.38;99410.38;5135073;27;20445;-70
2021/08/04 11:02:32;;;;;;;;;;;;;;;25.02;55.11;99406.06;5135123;27;19972;-72
2021/08/04 11:05:01;;;;;;;;;;;;;;;25.06;54.40;99409.28;5134925;27;19931;-71
2021/08/04 11:07:30;;;;;;;;;;;;;;;25.02;54.62;99413.88;5135231;27;19927;-73
2021/08/04 11:10:00;;;;;;;;;;;;;;;24.89;54.61;99407.75;5134804;27;19930;-70
2021/08/04 11:12:40;;;;;;;;;;;;;;;24.97;55.73;99415.94;5135336;28;19923;-70
2021/08/04 11:15:20;;;;;;;;;;;;;;;25.18;55.13;99403.28;5135008;28;19931;-71
2021/08/04 11:18:01;;;;;;;;;;;;;;;25.26;54.51;99412.31;5134893;28;19925;-73
2021/08/04 11:20:31;;;;;;;;;;;;;;;25.17;53.51;99412.88;5135520;28;19963;-70
2021/08/04 11:23:02;;;;;;;;;;;;;;;25.01;53.78;99411.34;5134910;28;19927;-73
2021/08/04 11:25:36;;;;;;;;;;;;;;;24.85;53.83;99403.66;5135428;28;20276;-70
2021/08/04 11:28:22;;;;;;;;;;;;;;;24.91;53.98;99400.66;5134868;28;19923;-73
2021/08/04 11:30:52;;;;;;;;;;;;;;;24.83;53.83;99402.09;5134852;28;19955;-72
2021/08/04 11:33:32;;;;;;;;;;;;;;;24.61;54.03;99407.78;5134764;28;19931;-73
2021/08/04 11:36:08;;;;;;;;;;;;;;;24.65;54.13;99409.25;5134845;28;19936;-71
2021/08/04 11:38:38;;;;;;;;;;;;;;;24.85;54.28;99398.44;5134784;28;19928;-74
2021/08/04 11:41:17;;;;;;;;;;;;;;;25.01;54.02;99404.34;5134627;28;19930;-71
2021/08/04 11:43:47;;;;;;;;;;;;;;;24.93;54.06;99398.78;5134731;28;20288;-74
2021/08/04 11:46:26;;;;;;;;;;;;;;;24.88;54.61;99400.88;5135054;28;19923;-72
2021/08/04 11:48:55;;;;;;;;;;;;;;;25.03;54.14;99399.03;5134562;28;20011;-73
2021/08/04 11:51:32;;;;;;;;;;;;;;;24.98;53.65;99395.91;5116473;28;20305;-74
2021/08/04 11:54:04;;;;;;;;;;;;;;;24.99;54.29;99393.19;5134889;28;19949;-71
2021/08/04 11:56:33;;;;;;;;;;;;;;;24.88;54.30;99393.03;5134510;28;20009;-70
2021/08/04 11:59:05;;;;;;;;;;;;;;;25.04;54.78;99388.50;5134891;28;20338;-72
2021/08/04 12:01:34;;;;;;;;;;;;;;;25.66;53.79;99378.31;5134745;28;19923;-73
2021/08/04 12:04:07;;;;;;;;;;;;;;;25.96;53.72;99381.50;5134294;28;19923;-73
2021/08/04 12:06:38;;;;;;;;;;;;;;;25.82;52.34;99378.94;5134519;28;19923;-70
2021/08/04 12:09:20;;;;;;;;;;;;;;;25.58;52.26;99375.41;5134449;28;19924;-71
2021/08/04 12:11:50;;;;;;;;;;;;;;;25.37;52.05;99376.78;5134305;28;19996;-70
2021/08/04 12:14:20;;;;;;;;;;;;;;;25.20;52.64;99375.25;5134446;28;20293;-71
2021/08/04 12:16:51;;;;;;;;;;;;;;;25.12;53.89;99370.53;5134412;28;19932;-71
2021/08/04 12:19:31;;;;;;;;;;;;;;;25.15;53.56;99370.34;5134497;28;20329;-70
2021/08/04 12:22:02;;;;;;;;;;;;;;;25.28;53.70;99373.84;5134325;28;19997;-72
2021/08/04 12:24:31;;;;;;;;;;;;;;;25.38;53.46;99370.63;5134389;28;19927;-72
2021/08/04 12:27:00;;;;;;;;;;;;;;;25.37;53.53;99367.16;5116692;27;19923;-69
2021/08/04 12:29:28;;;;;;;;;;;;;;;25.44;53.33;99362.34;5137380;27;19968;-70
2021/08/04 12:32:01;;;;;;;;;;;;;;;25.76;52.64;99353.22;5137882;27;19923;-71
2021/08/04 12:34:30;;;;;;;;;;;;;;;26.02;51.65;99347.03;5138221;27;20338;-72
2021/08/04 12:37:02;;;;;;;;;;;;;;;26.43;50.58;99342.41;5137853;27;19924;-73
2021/08/04 12:39:31;;;;;;;;;;;;;;;26.85;50.00;99345.53;5138024;27;19933;-70
2021/08/04 12:42:00;;;;;;;;;;;;;;;26.84;48.78;99341.25;5137906;27;19968;-73
2021/08/04 12:44:30;;;;;;;;;;;;;;;26.65;49.17;99338.25;5137660;27;19924;-70
2021/08/04 12:46:59;;;;;;;;;;;;;;;26.31;50.28;99335.41;5137909;27;19930;-71
2021/08/04 12:49:33;;;;;;;;;;;;;;;26.50;51.05;99327.94;5137838;27;19923;-71
2021/08/04 12:52:06;;;;;;;;;;;;;;;26.63;50.69;99341.78;5137451;27;20347;-73
2021/08/04 12:54:36;;;;;;;;;;;;;;;26.89;50.46;99326.03;5137785;27;19923;-72
2021/08/04 12:57:16;;;;;;;;;;;;;;;26.85;49.67;99335.06;5137755;27;19927;-72
2021/08/04 12:59:45;;;;;;;;;;;;;;;26.43;49.92;99339.78;5137758;27;19924;-70
2021/08/04 13:02:14;;;;;;;;;;;;;;;26.36;49.61;99325.47;5137183;27;20355;-72
2021/08/04 13:04:45;;;;;;;;;;;;;;;26.48;48.54;99331.59;5137081;27;20237;-71
2021/08/04 13:07:17;;;;;;;;;;;;;;;26.92;49.88;99331.84;5137327;27;19976;-71